createdAt,value
2022-08-17T00:02:26.424Z,7.18
2022-08-17T00:04:55.600Z,7.25
2022-08-17T00:07:23.289Z,8.55
2022-08-17T00:09:50.515Z,7.40
2022-08-17T00:12:42.845Z,7.45
2022-08-17T00:15:10.692Z,8.27
2022-08-17T00:17:38.167Z,7.35
2022-08-17T00:20:06.421Z,8.52
2022-08-17T00:22:36.483Z,9.27
2022-08-17T00:25:09.057Z,7.55
2022-08-17T00:27:36.947Z,9.07
2022-08-17T00:30:06.689Z,10.48
2022-08-17T00:33:14.542Z,11.50
2022-08-17T00:35:30.636Z,11.93
2022-08-17T00:37:57.909Z,11.95
2022-08-17T00:40:25.246Z,7.60
2022-08-17T00:42:53.518Z,12.55
2022-08-17T00:45:23.092Z,11.00
2022-08-17T00:47:50.346Z,9.52
2022-08-17T00:50:19.194Z,7.30
2022-08-17T00:52:56.051Z,10.18
2022-08-17T00:55:25.428Z,9.85
2022-08-17T00:57:58.599Z,10.13
2022-08-17T01:03:10.018Z,9.98
2022-08-17T01:05:42.192Z,7.30
2022-08-17T01:08:13.459Z,11.25
2022-08-17T01:10:58.765Z,10.13
2022-08-17T01:13:42.577Z,12.48
2022-08-17T01:16:28.334Z,10.90
2022-08-17T01:19:01.030Z,12.60
2022-08-17T01:21:43.941Z,9.20
2022-08-17T01:24:11.175Z,9.38
2022-08-17T01:26:43.328Z,11.75
2022-08-17T01:29:12.660Z,8.38
2022-08-17T01:31:45.515Z,9.55
2022-08-17T01:34:15.859Z,12.00
2022-08-17T01:36:45.899Z,9.27
2022-08-17T01:39:30.515Z,8.65
2022-08-17T01:42:11.055Z,12.68
2022-08-17T01:44:41.272Z,9.20
2022-08-17T01:47:08.485Z,9.00
2022-08-17T01:49:35.765Z,9.90
2022-08-17T01:52:10.942Z,10.05
2022-08-17T01:54:41.441Z,14.55
2022-08-17T01:57:09.259Z,10.10
2022-08-17T01:59:37.060Z,9.38
2022-08-17T02:02:07.282Z,11.50
2022-08-17T02:04:35.175Z,9.98
2022-08-17T02:07:02.404Z,8.05
2022-08-17T02:09:31.491Z,7.90
2022-08-17T02:12:38.300Z,10.15
2022-08-17T02:14:48.031Z,10.68
2022-08-17T02:17:15.256Z,10.68
2022-08-17T02:19:42.667Z,10.07
2022-08-17T02:22:10.384Z,10.18
2022-08-17T02:24:59.635Z,8.82
2022-08-17T02:27:26.411Z,8.38
2022-08-17T02:29:53.763Z,9.93
2022-08-17T02:32:28.040Z,10.45
2022-08-17T02:34:57.466Z,7.28
2022-08-17T02:37:26.601Z,11.25
2022-08-17T02:39:54.618Z,8.05
2022-08-17T02:42:31.502Z,8.55
2022-08-17T02:45:00.646Z,8.15
2022-08-17T02:47:28.048Z,9.82
2022-08-17T02:49:56.141Z,8.57
2022-08-17T02:52:53.520Z,6.10
2022-08-17T02:55:17.383Z,9.40
2022-08-17T02:57:45.622Z,10.32
2022-08-17T03:00:18.876Z,8.77
2022-08-17T03:05:15.763Z,9.48
2022-08-17T03:07:43.132Z,9.40
2022-08-17T03:10:11.693Z,8.32
2022-08-17T03:12:41.688Z,8.73
2022-08-17T03:15:12.873Z,11.18
2022-08-17T03:17:40.170Z,12.32
2022-08-17T03:20:08.554Z,15.25
2022-08-17T03:22:38.618Z,8.52
2022-08-17T03:25:10.743Z,10.48
2022-08-17T03:27:39.382Z,12.25
2022-08-17T03:30:10.709Z,10.45
2022-08-17T03:32:39.964Z,9.38
2022-08-17T03:35:08.781Z,8.38
2022-08-17T03:37:36.785Z,7.70
2022-08-17T03:40:07.575Z,8.50
2022-08-17T03:42:38.089Z,11.45
2022-08-17T03:45:38.491Z,7.57
2022-08-17T03:48:35.627Z,8.18
2022-08-17T03:51:21.642Z,8.82
2022-08-17T03:54:13.346Z,12.23
2022-08-17T03:56:45.104Z,11.43
2022-08-17T03:59:20.846Z,9.45
2022-08-17T04:01:53.364Z,6.85
2022-08-17T04:04:27.713Z,11.57
2022-08-17T04:06:55.715Z,10.13
2022-08-17T04:09:22.988Z,9.95
2022-08-17T04:11:50.221Z,7.15
2022-08-17T04:14:17.448Z,7.47
2022-08-17T04:16:44.708Z,8.77
2022-08-17T04:19:12.289Z,9.20
2022-08-17T04:21:39.960Z,9.32
2022-08-17T04:24:07.803Z,9.50
2022-08-17T04:26:52.226Z,10.15
2022-08-17T04:29:22.692Z,8.07
2022-08-17T04:31:50.273Z,9.13
2022-08-17T04:34:19.574Z,9.40
2022-08-17T04:36:50.098Z,9.52
2022-08-17T04:39:17.856Z,8.60
2022-08-17T04:42:03.385Z,9.75
2022-08-17T04:44:37.795Z,12.55
2022-08-17T04:47:07.155Z,10.32
2022-08-17T04:49:38.049Z,9.80
2022-08-17T04:52:05.336Z,8.98
2022-08-17T04:54:32.639Z,8.90
2022-08-17T04:56:59.901Z,10.02
2022-08-17T04:59:27.132Z,10.07
2022-08-17T05:01:54.728Z,9.25
2022-08-17T05:04:34.443Z,7.85
2022-08-17T05:07:04.574Z,7.97
2022-08-17T05:09:32.113Z,11.07
2022-08-17T05:12:02.651Z,11.65
2022-08-17T05:14:32.328Z,8.90
2022-08-17T05:17:02.037Z,7.57
2022-08-17T05:19:35.341Z,7.50
2022-08-17T05:22:06.179Z,11.05
2022-08-17T05:24:42.618Z,13.90
2022-08-17T05:27:19.162Z,38.17
2022-08-17T05:29:46.597Z,28.67
2022-08-17T05:32:39.221Z,29.45
2022-08-17T05:35:01.332Z,13.65
2022-08-17T05:37:28.755Z,16.90
2022-08-17T05:39:56.082Z,19.17
2022-08-17T05:42:24.107Z,16.83
2022-08-17T05:44:51.405Z,14.10
2022-08-17T05:47:18.651Z,9.10
2022-08-17T05:49:49.091Z,8.25
2022-08-17T05:52:30.172Z,9.35
2022-08-17T05:55:25.268Z,9.73
2022-08-17T05:57:59.869Z,5.57
2022-08-17T06:00:52.063Z,7.32
2022-08-17T06:03:28.279Z,6.90
2022-08-17T06:06:10.841Z,12.07
2022-08-17T06:08:40.718Z,9.50
2022-08-17T06:11:22.765Z,7.90
2022-08-17T06:14:18.317Z,11.85
2022-08-17T06:16:50.801Z,12.23
2022-08-17T06:19:23.827Z,7.90
2022-08-17T06:21:54.215Z,8.13
2022-08-17T06:24:24.296Z,12.20
2022-08-17T06:26:52.739Z,11.57
2022-08-17T06:29:44.017Z,10.57
2022-08-17T06:32:12.851Z,12.93
2022-08-17T06:34:42.184Z,13.10
2022-08-17T06:37:31.195Z,16.38
2022-08-17T06:40:10.910Z,18.45
2022-08-17T06:43:00.849Z,15.18
2022-08-17T06:45:41.904Z,16.15
2022-08-17T06:48:48.420Z,14.85
2022-08-17T06:51:27.802Z,18.23
2022-08-17T06:54:06.473Z,14.82
2022-08-17T06:56:54.277Z,15.05
2022-08-17T06:59:53.210Z,11.80
2022-08-17T07:02:52.249Z,23.38
2022-08-17T07:05:21.801Z,22.42
2022-08-17T07:08:04.602Z,22.92
2022-08-17T07:10:42.945Z,24.55
2022-08-17T07:13:43.279Z,14.30
2022-08-17T07:16:41.124Z,13.30
2022-08-17T07:19:10.956Z,17.20
2022-08-17T07:21:51.811Z,17.73
2022-08-17T07:24:33.544Z,14.55
2022-08-17T07:27:11.794Z,14.38
2022-08-17T07:29:48.024Z,15.48
2022-08-17T07:32:20.268Z,14.65
2022-08-17T07:35:00.819Z,20.13
2022-08-17T07:37:28.155Z,17.38
2022-08-17T07:40:14.920Z,19.48
2022-08-17T07:42:46.553Z,15.90
2022-08-17T07:45:35.047Z,18.52
2022-08-17T07:48:20.366Z,14.93
2022-08-17T07:50:49.703Z,17.40
2022-08-17T07:53:25.994Z,11.18
2022-08-17T07:55:53.907Z,14.77
2022-08-17T07:58:23.981Z,12.25
2022-08-17T08:01:08.284Z,17.13
2022-08-17T08:03:42.887Z,13.90
2022-08-17T08:06:23.189Z,14.10
2022-08-17T08:08:54.796Z,15.55
2022-08-17T08:11:32.980Z,10.73
2022-08-17T08:14:29.325Z,12.57
2022-08-17T08:16:59.108Z,14.80
2022-08-17T08:19:28.358Z,16.35
2022-08-17T08:22:04.537Z,13.43
2022-08-17T08:24:52.229Z,15.05
2022-08-17T08:27:27.688Z,11.75
2022-08-17T08:30:18.269Z,15.68
2022-08-17T08:33:21.212Z,12.88
2022-08-17T08:35:53.636Z,13.80
2022-08-17T08:38:53.731Z,15.48
2022-08-17T08:41:24.086Z,11.30
2022-08-17T08:44:03.709Z,14.43
2022-08-17T08:46:39.520Z,8.07
2022-08-17T08:50:01.230Z,14.65
2022-08-17T08:52:31.062Z,13.25
2022-08-17T08:55:10.246Z,14.68
2022-08-17T08:57:45.178Z,8.80
2022-08-17T09:00:21.601Z,12.80
2022-08-17T09:03:06.168Z,10.55
2022-08-17T09:05:45.468Z,8.55
2022-08-17T09:08:40.256Z,10.15
2022-08-17T09:11:28.396Z,11.43
2022-08-17T09:14:21.534Z,12.70
2022-08-17T09:17:00.484Z,12.40
2022-08-17T09:19:53.796Z,11.00
2022-08-17T09:25:13.614Z,8.75
2022-08-17T09:27:57.265Z,16.05
2022-08-17T09:30:43.360Z,20.05
2022-08-17T09:33:15.250Z,10.38
2022-08-17T09:35:48.100Z,12.40
2022-08-17T09:38:41.667Z,12.13
2022-08-17T09:41:49.403Z,14.45
2022-08-17T09:44:30.991Z,11.13
2022-08-17T09:47:14.469Z,10.95
2022-08-17T09:49:49.248Z,7.18
2022-08-17T09:52:21.790Z,11.32
2022-08-17T09:54:53.518Z,9.88
2022-08-17T09:57:32.156Z,10.40
2022-08-17T10:00:16.044Z,14.27
2022-08-17T10:02:53.465Z,12.23
2022-08-17T10:05:39.981Z,13.20
2022-08-17T10:08:22.917Z,10.10
2022-08-17T10:10:56.516Z,16.02
2022-08-17T10:13:53.429Z,19.70
2022-08-17T10:16:44.899Z,8.13
2022-08-17T10:19:15.169Z,13.90
2022-08-17T10:22:14.751Z,15.30
2022-08-17T10:25:22.236Z,6.70
2022-08-17T10:27:56.611Z,8.77
2022-08-17T10:30:28.932Z,10.48
2022-08-17T10:33:06.789Z,9.15
2022-08-17T10:36:10.890Z,9.50
2022-08-17T10:38:59.468Z,9.07
2022-08-17T10:41:30.966Z,11.18
2022-08-17T10:44:38.548Z,11.45
2022-08-17T10:47:11.669Z,7.93
2022-08-17T10:49:47.939Z,11.07
2022-08-17T10:52:41.453Z,8.68
2022-08-17T10:55:17.812Z,11.25
2022-08-17T10:57:50.223Z,8.23
2022-08-17T11:00:28.460Z,9.05
2022-08-17T11:02:57.548Z,8.73
2022-08-17T11:05:50.347Z,11.45
2022-08-17T11:08:33.749Z,5.97
2022-08-17T11:11:35.859Z,8.52
2022-08-17T11:14:18.849Z,10.73
2022-08-17T11:17:23.460Z,7.90
2022-08-17T11:20:21.056Z,9.77
2022-08-17T11:23:03.448Z,11.32
2022-08-17T11:25:40.813Z,9.07
2022-08-17T11:28:22.053Z,13.25
2022-08-17T11:30:53.888Z,13.10
2022-08-17T11:33:30.401Z,9.30
2022-08-17T11:36:20.035Z,8.52
2022-08-17T11:39:19.236Z,9.50
2022-08-17T11:42:05.887Z,9.32
2022-08-17T11:44:53.327Z,6.13
2022-08-17T11:48:23.786Z,7.22
2022-08-17T11:51:18.563Z,8.48
2022-08-17T11:53:45.832Z,8.32
2022-08-17T11:56:31.796Z,10.88
2022-08-17T11:59:00.768Z,9.60
2022-08-17T12:01:29.068Z,9.75
2022-08-17T12:04:25.929Z,6.57
2022-08-17T12:06:56.947Z,10.68
2022-08-17T12:09:29.852Z,10.00
2022-08-17T12:12:14.218Z,12.50
2022-08-17T12:15:09.546Z,9.15
2022-08-17T12:17:40.972Z,11.63
2022-08-17T12:20:38.700Z,7.47
2022-08-17T12:23:24.255Z,10.38
2022-08-17T12:26:05.099Z,8.48
2022-08-17T12:28:36.420Z,9.18
2022-08-17T12:31:07.712Z,10.43
2022-08-17T12:33:39.955Z,8.82
2022-08-17T12:36:08.939Z,8.50
2022-08-17T12:38:38.174Z,11.05
2022-08-17T12:41:26.334Z,12.10
2022-08-17T12:44:14.940Z,9.77
2022-08-17T12:46:54.467Z,9.40
2022-08-17T12:49:29.840Z,9.43
2022-08-17T12:52:05.768Z,9.15
2022-08-17T12:54:42.007Z,10.18
2022-08-17T12:57:14.556Z,10.00
2022-08-17T13:02:31.231Z,7.50
2022-08-17T13:05:01.461Z,9.05
2022-08-17T13:07:36.742Z,8.20
2022-08-17T13:10:04.540Z,9.35
2022-08-17T13:12:35.461Z,8.55
2022-08-17T13:15:03.003Z,9.65
2022-08-17T13:17:34.761Z,6.22
2022-08-17T13:20:06.124Z,7.60
2022-08-17T13:22:33.637Z,10.88
2022-08-17T13:25:07.418Z,7.28
2022-08-17T13:27:34.821Z,9.95
2022-08-17T13:30:11.601Z,10.30
2022-08-17T13:32:46.347Z,9.98
2022-08-17T13:35:39.989Z,8.32
2022-08-17T13:38:14.529Z,9.13
2022-08-17T13:40:43.801Z,7.45
2022-08-17T13:43:11.953Z,9.45
2022-08-17T13:45:50.774Z,12.27
2022-08-17T13:48:29.510Z,10.55
2022-08-17T13:50:56.799Z,10.50
2022-08-17T13:53:26.769Z,12.10
2022-08-17T13:55:58.533Z,8.30
2022-08-17T13:58:32.088Z,10.20
2022-08-17T14:01:35.918Z,9.20
2022-08-17T14:04:10.104Z,8.85
2022-08-17T14:06:52.275Z,13.18
2022-08-17T14:09:24.318Z,10.35
2022-08-17T14:11:54.120Z,5.88
2022-08-17T14:14:23.288Z,10.05
2022-08-17T14:16:51.961Z,9.68
2022-08-17T14:19:24.284Z,9.73
2022-08-17T14:21:52.284Z,9.20
2022-08-17T14:24:26.479Z,8.70
2022-08-17T14:26:54.005Z,10.95
2022-08-17T14:29:23.808Z,11.23
2022-08-17T14:31:54.227Z,8.38
2022-08-17T14:34:24.343Z,8.10
2022-08-17T14:36:52.758Z,8.95
2022-08-17T14:39:20.608Z,7.22
2022-08-17T14:41:48.926Z,8.38
2022-08-17T14:44:16.298Z,7.70
2022-08-17T14:46:44.933Z,8.80
2022-08-17T14:49:13.432Z,7.80
2022-08-17T14:51:43.589Z,8.02
2022-08-17T14:54:33.422Z,13.10
2022-08-17T14:57:22.566Z,10.48
2022-08-17T14:59:54.942Z,13.80
2022-08-17T15:02:31.046Z,12.52
2022-08-17T15:05:03.206Z,10.13
2022-08-17T15:07:31.393Z,8.10
2022-08-17T15:10:01.616Z,13.55
2022-08-17T15:12:34.561Z,6.93
2022-08-17T15:15:06.294Z,10.45
2022-08-17T15:17:44.518Z,10.27
2022-08-17T15:20:22.979Z,10.27
2022-08-17T15:22:50.603Z,10.60
2022-08-17T15:25:19.352Z,11.25
2022-08-17T15:27:47.410Z,8.73
2022-08-17T15:30:15.814Z,15.57
2022-08-17T15:32:50.779Z,12.60
2022-08-17T15:35:26.982Z,11.95
2022-08-17T15:37:54.994Z,9.60
2022-08-17T15:40:22.263Z,8.05
2022-08-17T15:42:51.112Z,9.98
2022-08-17T15:45:23.037Z,12.63
2022-08-17T15:47:52.054Z,13.93
2022-08-17T15:50:19.714Z,7.47
2022-08-17T15:52:47.601Z,8.02
2022-08-17T15:55:15.638Z,11.27
2022-08-17T15:57:43.000Z,10.95
2022-08-17T16:00:11.105Z,15.20
2022-08-17T16:03:45.127Z,10.65
2022-08-17T16:05:31.076Z,7.93
2022-08-17T16:07:59.759Z,10.48
2022-08-17T16:10:35.476Z,11.95
2022-08-17T16:13:04.047Z,7.22
2022-08-17T16:15:32.027Z,12.88
2022-08-17T16:17:59.765Z,10.80
2022-08-17T16:20:27.616Z,10.25
2022-08-17T16:22:55.252Z,6.72
2022-08-17T16:25:38.401Z,6.80
2022-08-17T16:28:16.227Z,9.30
2022-08-17T16:30:43.962Z,8.93
2022-08-17T16:33:11.654Z,10.27
2022-08-17T16:35:39.166Z,7.80
2022-08-17T16:38:07.260Z,6.85
2022-08-17T16:40:36.267Z,9.23
2022-08-17T16:43:09.186Z,22.83
2022-08-17T16:45:40.549Z,13.27
2022-08-17T16:48:09.383Z,15.63
2022-08-17T16:50:37.517Z,11.48
2022-08-17T16:53:10.688Z,10.20
2022-08-17T16:55:38.612Z,7.82
2022-08-17T16:58:06.909Z,13.00
2022-08-17T17:00:35.260Z,14.57
2022-08-17T17:03:19.355Z,9.98
2022-08-17T17:06:24.479Z,9.80
2022-08-17T17:09:07.989Z,9.98
2022-08-17T17:11:48.188Z,14.63
2022-08-17T17:14:29.539Z,8.75
2022-08-17T17:16:57.727Z,9.45
2022-08-17T17:19:37.237Z,11.02
2022-08-17T17:22:14.116Z,15.32
2022-08-17T17:25:12.209Z,9.05
2022-08-17T17:27:58.864Z,8.23
2022-08-17T17:30:58.487Z,13.18
2022-08-17T17:33:37.039Z,11.18
2022-08-17T17:36:25.712Z,14.95
2022-08-17T17:38:59.291Z,6.25
2022-08-17T17:41:32.820Z,10.80
2022-08-17T17:44:12.169Z,12.75
2022-08-17T17:46:43.327Z,10.85
2022-08-17T17:49:14.081Z,12.40
2022-08-17T17:52:08.550Z,8.40
2022-08-17T17:55:09.671Z,6.72
2022-08-17T17:58:00.718Z,11.88
2022-08-17T18:01:01.622Z,11.70
2022-08-17T18:03:50.679Z,8.05
2022-08-17T18:06:33.179Z,8.98
2022-08-17T18:09:19.234Z,6.10
2022-08-17T18:12:02.561Z,9.15
2022-08-17T18:15:00.195Z,11.98
2022-08-17T18:17:29.873Z,5.72
2022-08-17T18:19:57.438Z,6.68
2022-08-17T18:22:25.966Z,7.20
2022-08-17T18:24:57.855Z,8.43
2022-08-17T18:27:34.552Z,9.23
2022-08-17T18:30:26.075Z,12.25
2022-08-17T18:32:53.487Z,10.90
2022-08-17T18:35:22.215Z,8.65
2022-08-17T18:37:52.606Z,8.02
2022-08-17T18:40:20.065Z,6.53
2022-08-17T18:43:03.034Z,9.95
2022-08-17T18:45:33.474Z,4.95
2022-08-17T18:48:01.725Z,4.82
2022-08-17T18:50:39.522Z,6.70
2022-08-17T18:53:26.736Z,6.38
2022-08-17T18:56:26.858Z,7.40
2022-08-17T18:59:01.270Z,5.18
2022-08-17T19:01:52.403Z,5.57
2022-08-17T19:04:35.588Z,3.92
2022-08-17T19:07:23.752Z,3.53
2022-08-17T19:10:14.135Z,3.80
2022-08-17T19:13:24.334Z,5.93
2022-08-17T19:16:15.322Z,3.40
2022-08-17T19:18:48.684Z,5.55
2022-08-17T19:21:25.533Z,3.33
2022-08-17T19:24:19.914Z,4.68
2022-08-17T19:26:59.459Z,3.88
2022-08-17T19:29:39.075Z,2.85
2022-08-17T19:32:08.956Z,4.97
2022-08-17T19:34:38.170Z,3.45
2022-08-17T19:37:25.430Z,3.25
2022-08-17T19:40:24.429Z,3.53
2022-08-17T19:43:12.225Z,2.58
2022-08-17T19:45:45.513Z,4.88
2022-08-17T19:48:35.618Z,5.78
2022-08-17T19:51:38.773Z,3.83
2022-08-17T19:54:20.985Z,3.13
2022-08-17T19:57:06.172Z,5.90
2022-08-17T19:59:49.391Z,5.40
2022-08-17T20:02:22.479Z,5.93
2022-08-17T20:07:22.320Z,3.10
2022-08-17T20:10:37.270Z,4.63
2022-08-17T20:13:09.891Z,5.90
2022-08-17T20:15:41.837Z,4.50
2022-08-17T20:18:24.157Z,6.32
2022-08-17T20:21:02.873Z,5.00
2022-08-17T20:23:38.969Z,4.68
2022-08-17T20:26:38.317Z,3.65
2022-08-17T20:29:37.776Z,5.00
2022-08-17T20:32:18.881Z,5.97
2022-08-17T20:34:47.788Z,4.30
2022-08-17T20:37:15.204Z,3.45
2022-08-17T20:40:04.420Z,5.32
2022-08-17T20:42:33.865Z,4.40
2022-08-17T20:45:26.119Z,6.18
2022-08-17T20:48:30.491Z,5.97
2022-08-17T20:50:56.980Z,3.67
2022-08-17T20:53:54.762Z,3.90
2022-08-17T20:56:43.555Z,5.40
2022-08-17T20:59:25.882Z,4.88
2022-08-17T21:02:18.814Z,7.90
2022-08-17T21:04:56.305Z,5.90
2022-08-17T21:07:23.535Z,5.20
2022-08-17T21:09:51.474Z,6.00
2022-08-17T21:12:50.223Z,8.15
2022-08-17T21:15:39.424Z,5.57
2022-08-17T21:18:12.977Z,8.98
2022-08-17T21:23:37.477Z,4.65
2022-08-17T21:26:30.605Z,7.65
2022-08-17T21:29:29.814Z,8.85
2022-08-17T21:32:01.792Z,4.40
2022-08-17T21:34:38.085Z,6.55
2022-08-17T21:37:20.496Z,5.75
2022-08-17T21:39:54.754Z,6.53
2022-08-17T21:42:31.659Z,6.78
2022-08-17T21:45:29.643Z,5.82
2022-08-17T21:48:21.338Z,7.07
2022-08-17T21:51:12.062Z,5.72
2022-08-17T21:53:42.231Z,4.25
2022-08-17T21:56:11.939Z,6.22
2022-08-17T21:58:48.314Z,5.10
2022-08-17T22:01:27.261Z,4.55
2022-08-17T22:04:25.403Z,8.20
2022-08-17T22:06:57.441Z,7.68
2022-08-17T22:09:32.458Z,11.18
2022-08-17T22:12:11.148Z,5.47
2022-08-17T22:14:53.190Z,4.78
2022-08-17T22:17:34.343Z,5.50
2022-08-17T22:20:10.451Z,7.85
2022-08-17T22:23:19.335Z,5.25
2022-08-17T22:26:02.599Z,5.75
2022-08-17T22:28:49.883Z,5.10
2022-08-17T22:31:26.834Z,7.10
2022-08-17T22:34:00.135Z,4.13
2022-08-17T22:36:45.939Z,4.95
2022-08-17T22:39:13.381Z,4.70
2022-08-17T22:41:57.160Z,8.60
2022-08-17T22:44:34.015Z,4.43
2022-08-17T22:47:11.455Z,6.85
2022-08-17T22:49:57.820Z,5.72
2022-08-17T22:53:00.357Z,4.05
2022-08-17T22:55:49.750Z,5.25
2022-08-17T22:58:38.625Z,4.00
2022-08-17T23:01:35.544Z,5.88
2022-08-17T23:04:06.353Z,5.43
2022-08-17T23:06:35.174Z,5.28
2022-08-17T23:09:05.811Z,5.20
2022-08-17T23:11:50.071Z,3.33
2022-08-17T23:14:20.176Z,7.25
2022-08-17T23:16:50.145Z,3.88
2022-08-17T23:19:20.477Z,5.22
2022-08-17T23:21:49.168Z,5.38
2022-08-17T23:24:29.184Z,4.90
2022-08-17T23:26:58.137Z,3.85
2022-08-17T23:29:29.197Z,7.38
2022-08-17T23:31:59.781Z,4.15
2022-08-17T23:34:28.395Z,5.55
2022-08-17T23:36:55.887Z,4.65
2022-08-17T23:39:24.688Z,4.85
2022-08-17T23:41:57.960Z,6.63
2022-08-17T23:44:26.108Z,4.32
2022-08-17T23:46:54.486Z,7.38
2022-08-17T23:49:21.770Z,5.20
2022-08-17T23:51:49.228Z,7.30
2022-08-17T23:54:21.691Z,4.35
2022-08-17T23:56:49.090Z,7.20
2022-08-17T23:59:19.855Z,4.28
